<?xml version="1.0" encoding="UTF-8" standalone="no" ?>
<gpx xmlns="http://www.topografix.com/GPX/1/1" xmlns:xsi="http://www.w3.org/2001/XMLSchema-instance" xsi:schemaLocation="http://www.topografix.com/GPX/1/1 http://www.topografix.com/GPX/1/1/gpx.xsd" version="1.1" creator="VisuGPX - https://www.visugpx.com">
  <metadata>
    <name>CDS j13</name>
    <desc><![CDATA[Chemin du soleil]]></desc>
  </metadata>
  <trk>
    <name><![CDATA[ACTIVE LOG150453]]></name>
    <trkseg>
      <trkpt lat="43.79459" lon="7.0411">
        <ele>1025</ele>
        <time>2011-08-21T13:04:53Z</time>
      </trkpt>
      <trkpt lat="43.79461" lon="7.0411">
        <ele>1025</ele>
        <time>2011-08-21T13:05:21Z</time>
      </trkpt>
      <trkpt lat="43.79458" lon="7.04114">
        <ele>1025</ele>
        <time>2011-08-21T13:05:23Z</time>
      </trkpt>
      <trkpt lat="43.79458" lon="7.04133">
        <ele>1025</ele>
        <time>2011-08-21T13:05:32Z</time>
      </trkpt>
      <trkpt lat="43.79455" lon="7.04179">
        <ele>1031</ele>
        <time>2011-08-21T13:05:48Z</time>
      </trkpt>
      <trkpt lat="43.79439" lon="7.042">
        <ele>1031</ele>
        <time>2011-08-21T13:05:58Z</time>
      </trkpt>
      <trkpt lat="43.79411" lon="7.0423">
        <ele>1021</ele>
        <time>2011-08-21T13:06:08Z</time>
      </trkpt>
      <trkpt lat="43.79373" lon="7.04275">
        <ele>1022</ele>
        <time>2011-08-21T13:06:22Z</time>
      </trkpt>
      <trkpt lat="43.79357" lon="7.04295">
        <ele>1020</ele>
        <time>2011-08-21T13:06:27Z</time>
      </trkpt>
      <trkpt lat="43.79346" lon="7.04322">
        <ele>1018</ele>
        <time>2011-08-21T13:06:32Z</time>
      </trkpt>
      <trkpt lat="43.79314" lon="7.04403">
        <ele>1008</ele>
        <time>2011-08-21T13:06:49Z</time>
      </trkpt>
      <trkpt lat="43.79303" lon="7.04424">
        <ele>1010</ele>
        <time>2011-08-21T13:06:53Z</time>
      </trkpt>
      <trkpt lat="43.7927" lon="7.04495">
        <ele>1004</ele>
        <time>2011-08-21T13:07:09Z</time>
      </trkpt>
      <trkpt lat="43.79258" lon="7.04521">
        <ele>1008</ele>
        <time>2011-08-21T13:07:19Z</time>
      </trkpt>
      <trkpt lat="43.79257" lon="7.04534">
        <ele>1010</ele>
        <time>2011-08-21T13:07:24Z</time>
      </trkpt>
      <trkpt lat="43.79253" lon="7.0454">
        <ele>1010</ele>
        <time>2011-08-21T13:07:40Z</time>
      </trkpt>
      <trkpt lat="43.79249" lon="7.04544">
        <ele>991</ele>
        <time>2011-08-21T13:07:56Z</time>
      </trkpt>
      <trkpt lat="43.79246" lon="7.04556">
        <ele>992</ele>
        <time>2011-08-21T13:08:12Z</time>
      </trkpt>
      <trkpt lat="43.79245" lon="7.04568">
        <ele>995</ele>
        <time>2011-08-21T13:08:25Z</time>
      </trkpt>
      <trkpt lat="43.79245" lon="7.0457">
        <ele>995</ele>
        <time>2011-08-21T13:08:42Z</time>
      </trkpt>
    </trkseg>
  </trk>
</gpx>